San Antonio, TX

10:08 PM CDT en Agosto 29, 2016 (GMT -0500)
Monticello | | Change Station

Alt 751 ft 29.47 °N, 98.53 °W | Updated 12 minutes ago

Scattered Clouds
Nubes dispersas
76.1 ° F
Sensación térmica 77 ° F
N
0.0
Viento Variable Viento desde OSO

Hoy
Alta -- | Baja -- ° F
--% Posibilidad de precipitaciones
Ayer
Alta -- | Baja -- ° F
Precip. -- pul
Presión 29.94 pul
Visibilidad 10.0 Millas
Nubes Baja 1500 ft
Nubes dispersas 12000 ft
Nubes dispersas 25000 ft
Índice de calor 77 ° F
Punto de rocío 70 ° F
Humedad 83%
Precipitaciones 0.00 pul
Espesor de la nieve No disponible.
7:10 AM 7:58 PM
Creciente menguante, 5% visible
METAR KSAT 300251Z 04005KT 10SM FEW015 SCT120 SCT250 24/22 A2999 RMK AO2 SLP139 60000 T02440222 53015
Presión 29.94 pul
Visibilidad 10.0 Millas
Nubes Baja 1500 ft
Nubes dispersas 12000 ft
Nubes dispersas 25000 ft
Índice de calor 77 ° F
Punto de rocío 70 ° F
Humedad 83%
Precipitaciones 0.00 pul
Espesor de la nieve No disponible.
7:10 AM 7:58 PM
Creciente menguante, 5% visible
METAR KSAT 300251Z 04005KT 10SM FEW015 SCT120 SCT250 24/22 A2999 RMK AO2 SLP139 60000 T02440222 53015

10-Day Weather Forecast

Almanac

Astronomía

Aug. 29, 2016 Salida Puesta
Hora real
Crepúsculo civil
Crepúsculo náutico
Crepúsculo astronómico
Luna
Horas de luz
Horas de luz
Tomorrow will be .
, % of the Moon is Illuminated

Extremos de hoy

Máximos del estado Bajos del estado

Community

WunderPhotos

Upload Photos

1,935,752 ¡fotos cargadas!

WunderBlog® & News

Nearby

Calidad del aire

  Calidad del aire Índice AQ Contaminante
Not available.

Grosos de nieve

Estación Profundido Altura

Actividad de terremotos

Ciudad Distance Mag. Tiempo y dato
Magnitud mínima muestra es 2,5.

Temperaturas de aguas costeras

Lugar Temperatura

Stations

Estaciones meteorológicas cercanas

Ubicación de la estación Temp. Vientos helados Punto de rocío Humedad Viento Precip. Alt Actualizado Tipo
                   

Watches & Warnings

There are currently no watches in effect.